createdAt,value
2022-11-05T00:04:54.564Z,100676.47
2022-11-05T00:09:58.333Z,100681.56
2022-11-05T00:15:13.587Z,100638.88
2022-11-05T00:20:13.043Z,100642.06
2022-11-05T00:25:19.414Z,100648.25
2022-11-05T00:30:18.466Z,100678.88
2022-11-05T00:35:20.816Z,100652.97
2022-11-05T00:40:18.252Z,100685.88
2022-11-05T00:45:15.547Z,100693.56
2022-11-05T00:50:18.868Z,100696.50
2022-11-05T00:55:16.753Z,100690.72
2022-11-05T01:00:15.011Z,100645.63
2022-11-05T01:05:12.481Z,100635.09
2022-11-05T01:10:09.659Z,100648.22
2022-11-05T01:15:08.840Z,100658.78
2022-11-05T01:20:06.615Z,100583.88
2022-11-05T01:25:04.407Z,100645.56
2022-11-05T01:30:01.583Z,100587.56
2022-11-05T01:34:59.365Z,100616.91
2022-11-05T01:39:56.530Z,100584.31
2022-11-05T01:44:57.072Z,100621.63
2022-11-05T01:49:54.692Z,100672.94
2022-11-05T01:54:53.350Z,100667.09
2022-11-05T01:59:54.131Z,100644.34
2022-11-05T02:04:55.718Z,100637.31
2022-11-05T02:09:59.456Z,100641.50
2022-11-05T02:14:56.700Z,100547.63
2022-11-05T02:20:09.898Z,100667.63
2022-11-05T02:25:32.756Z,100665.28
2022-11-05T02:30:41.035Z,100667.91
2022-11-05T02:35:56.718Z,100636.38
2022-11-05T02:40:59.681Z,100666.81
2022-11-05T02:46:06.922Z,100630.78
2022-11-05T02:51:12.559Z,100659.81
2022-11-05T02:56:15.962Z,100662.56
2022-11-05T03:01:13.852Z,100621.66
2022-11-05T03:06:29.482Z,100578.81
2022-11-05T03:11:29.289Z,100612.97
2022-11-05T03:16:35.149Z,100666.88
2022-11-05T03:21:42.869Z,100649.78
2022-11-05T03:26:43.837Z,100672.75
2022-11-05T03:31:44.146Z,100681.84
2022-11-05T03:36:46.007Z,100631.81
2022-11-05T03:41:46.831Z,100644.94
2022-11-05T03:46:49.331Z,100602.47
2022-11-05T03:51:52.090Z,100665.16
2022-11-05T03:56:58.756Z,100639.66
2022-11-05T04:01:57.100Z,100580.41
2022-11-05T04:07:12.039Z,100657.72
2022-11-05T04:12:30.449Z,100653.78
2022-11-05T04:17:28.364Z,100676.03
2022-11-05T04:22:45.723Z,100665.41
2022-11-05T04:27:43.027Z,100621.50
2022-11-05T04:32:40.777Z,100661.09
2022-11-05T04:37:40.273Z,100657.13
2022-11-05T04:42:37.416Z,100571.19
2022-11-05T04:47:36.432Z,100631.94
2022-11-05T04:52:34.770Z,100649.09
2022-11-05T04:57:31.820Z,100667.78
2022-11-05T05:02:31.954Z,100671.22
2022-11-05T05:07:30.157Z,100663.53
2022-11-05T05:12:28.564Z,100650.06
2022-11-05T05:17:25.931Z,100678.66
2022-11-05T05:22:23.215Z,100691.06
2022-11-05T05:27:22.399Z,100694.81
2022-11-05T05:32:23.885Z,100674.22
2022-11-05T05:37:21.371Z,100709.09
2022-11-05T05:42:20.669Z,100564.34
2022-11-05T05:47:18.035Z,100693.50
2022-11-05T05:52:17.953Z,100676.00
2022-11-05T05:57:15.879Z,100661.69
2022-11-05T06:02:15.440Z,100750.47
2022-11-05T06:07:12.766Z,100745.53
2022-11-05T06:12:13.729Z,100705.38
2022-11-05T06:17:11.899Z,100757.66
2022-11-05T06:22:12.251Z,100623.22
2022-11-05T06:27:11.939Z,100712.78
2022-11-05T06:32:13.417Z,100639.53
2022-11-05T06:37:10.556Z,100709.09
2022-11-05T06:42:22.850Z,100739.75
2022-11-05T06:47:22.053Z,100726.94
2022-11-05T06:52:19.337Z,100746.97
2022-11-05T06:57:16.355Z,100746.19
2022-11-05T07:02:13.940Z,100762.63
2022-11-05T07:07:12.706Z,100765.47
2022-11-05T07:12:10.528Z,100770.19
2022-11-05T07:17:09.130Z,100775.38
2022-11-05T07:22:09.664Z,100771.31
2022-11-05T07:27:08.466Z,100682.41
2022-11-05T07:32:06.212Z,100719.34
2022-11-05T07:37:03.732Z,100773.13
2022-11-05T07:42:01.404Z,100767.91
2022-11-05T07:47:04.506Z,100726.94
2022-11-05T07:52:03.501Z,100650.13
2022-11-05T07:57:03.347Z,100665.56
2022-11-05T08:02:19.063Z,100720.16
2022-11-05T08:07:16.565Z,100676.53
2022-11-05T08:12:15.181Z,100744.69
2022-11-05T08:17:18.412Z,100674.31
2022-11-05T08:22:16.478Z,100655.53
2022-11-05T08:27:16.334Z,100619.84
2022-11-05T08:32:16.746Z,100718.63
2022-11-05T08:37:14.033Z,100703.53
2022-11-05T08:42:11.320Z,100689.13
2022-11-05T08:47:08.550Z,100689.03
2022-11-05T08:52:07.271Z,100595.56
2022-11-05T08:57:04.725Z,100693.97
2022-11-05T09:02:02.056Z,100719.56
2022-11-05T09:07:02.232Z,100707.13
2022-11-05T09:12:12.563Z,100703.25
2022-11-05T09:17:17.560Z,100656.63
2022-11-05T09:22:15.005Z,100710.81
2022-11-05T09:27:14.267Z,100716.13
2022-11-05T09:32:11.781Z,100655.72
2022-11-05T09:37:08.990Z,100578.16
2022-11-05T09:42:08.669Z,100670.41
2022-11-05T09:47:11.954Z,100657.19
2022-11-05T09:52:15.545Z,100621.31
2022-11-05T09:57:18.645Z,100650.41
2022-11-05T10:02:31.957Z,100561.53
2022-11-05T10:07:38.626Z,100628.34
2022-11-05T10:12:40.361Z,100587.47
2022-11-05T10:17:42.433Z,100689.97
2022-11-05T10:22:41.187Z,100685.25
2022-11-05T10:27:52.705Z,100684.38
2022-11-05T10:32:56.495Z,100688.81
2022-11-05T10:37:53.784Z,100687.06
2022-11-05T10:43:02.537Z,100596.75
2022-11-05T10:48:25.927Z,100681.72
2022-11-05T10:53:30.348Z,100534.03
2022-11-05T10:58:30.347Z,100604.03
2022-11-05T11:03:39.427Z,100655.78
2022-11-05T11:08:39.441Z,100624.47
2022-11-05T11:13:51.259Z,100536.75
2022-11-05T11:18:55.269Z,100649.00
2022-11-05T11:23:59.462Z,100620.19
2022-11-05T11:28:59.936Z,100601.50
2022-11-05T11:34:01.676Z,100600.50
2022-11-05T11:39:00.284Z,100578.59
2022-11-05T11:44:03.595Z,100632.09
2022-11-05T11:49:02.533Z,100625.47
2022-11-05T11:54:06.124Z,100506.91
2022-11-05T11:59:16.259Z,100596.25
2022-11-05T12:04:37.864Z,100625.56
2022-11-05T12:09:49.584Z,100541.53
2022-11-05T12:14:53.998Z,100632.84
2022-11-05T12:20:22.768Z,100615.34
2022-11-05T12:25:27.021Z,100615.50
2022-11-05T12:30:34.074Z,100573.66
2022-11-05T12:35:47.019Z,100616.94
2022-11-05T12:41:05.167Z,100623.56
2022-11-05T12:46:19.655Z,100625.56
2022-11-05T12:51:37.564Z,100627.63
2022-11-05T12:56:41.532Z,100575.44
2022-11-05T13:01:51.909Z,100530.09
2022-11-05T13:06:54.405Z,100543.28
2022-11-05T13:11:57.406Z,100606.94
2022-11-05T13:17:02.752Z,100599.38
2022-11-05T13:22:15.880Z,100627.97
2022-11-05T13:27:37.389Z,100594.03
2022-11-05T13:32:38.534Z,100571.94
2022-11-05T13:38:00.131Z,100587.78
2022-11-05T13:43:15.127Z,100622.81
2022-11-05T13:48:28.026Z,100639.84
2022-11-05T13:53:52.981Z,100595.50
2022-11-05T13:59:12.557Z,100586.94
2022-11-05T14:04:26.331Z,100634.41
2022-11-05T14:09:29.616Z,100646.63
2022-11-05T14:14:34.849Z,100624.19
2022-11-05T14:19:50.059Z,100640.31
2022-11-05T14:24:52.551Z,100605.69
2022-11-05T14:29:55.893Z,100559.97
2022-11-05T14:35:03.428Z,100573.75
2022-11-05T14:40:39.767Z,100602.22
2022-11-05T14:45:43.217Z,100603.09
2022-11-05T14:50:42.246Z,100596.38
2022-11-05T14:55:46.703Z,100645.91
2022-11-05T15:00:49.846Z,100637.63
2022-11-05T15:05:52.809Z,100627.00
2022-11-05T15:10:54.685Z,100611.13
2022-11-05T15:15:53.085Z,100652.41
2022-11-05T15:20:55.653Z,100582.63
2022-11-05T15:26:03.162Z,100601.81
2022-11-05T15:31:04.246Z,100582.47
2022-11-05T15:36:17.110Z,100661.38
2022-11-05T15:41:21.822Z,100642.13
2022-11-05T15:46:20.691Z,100600.75
2022-11-05T15:51:24.761Z,100622.81
2022-11-05T15:56:31.844Z,100668.28
2022-11-05T16:01:34.609Z,100617.09
2022-11-05T16:06:37.758Z,100626.72
2022-11-05T16:11:40.561Z,100728.63
2022-11-05T16:16:38.307Z,100682.44
2022-11-05T16:21:56.385Z,100714.00
2022-11-05T16:27:02.630Z,100715.81
2022-11-05T16:32:13.966Z,100684.19
2022-11-05T16:37:18.801Z,100773.25
2022-11-05T16:42:42.677Z,100663.53
2022-11-05T16:47:55.786Z,100753.81
2022-11-05T16:52:59.053Z,100752.19
2022-11-05T16:58:10.219Z,100714.91
2022-11-05T17:03:13.524Z,100703.09
2022-11-05T17:08:11.291Z,100790.41
2022-11-05T17:13:15.451Z,100725.81
2022-11-05T17:18:18.568Z,100795.16
2022-11-05T17:23:21.132Z,100767.34
2022-11-05T17:28:20.824Z,100679.47
2022-11-05T17:33:20.705Z,100795.50
2022-11-05T17:38:18.255Z,100806.88
2022-11-05T17:43:15.966Z,100784.75
2022-11-05T17:48:13.995Z,100729.34
2022-11-05T17:53:12.835Z,100817.09
2022-11-05T17:58:11.221Z,100824.91
2022-11-05T18:03:11.150Z,100762.97
2022-11-05T18:08:09.938Z,100803.31
2022-11-05T18:13:14.217Z,100790.91
2022-11-05T18:18:18.881Z,100839.97
2022-11-05T18:23:16.990Z,100734.63
2022-11-05T18:28:14.672Z,100715.06
2022-11-05T18:33:12.211Z,100763.50
2022-11-05T18:38:10.617Z,100767.53
2022-11-05T18:43:10.761Z,100836.69
2022-11-05T18:48:15.168Z,100799.13
2022-11-05T18:53:13.638Z,100844.16
2022-11-05T18:58:14.747Z,100810.91
2022-11-05T19:03:12.600Z,100870.56
2022-11-05T19:08:14.971Z,100753.00
2022-11-05T19:13:23.778Z,100882.13
2022-11-05T19:18:22.050Z,100848.00
2022-11-05T19:23:19.368Z,100877.66
2022-11-05T19:28:17.493Z,100814.22
2022-11-05T19:33:15.190Z,100793.22
2022-11-05T19:38:15.290Z,100828.50
2022-11-05T19:43:14.021Z,100835.88
2022-11-05T19:48:19.100Z,100834.72
2022-11-05T19:53:17.467Z,100911.09
2022-11-05T19:58:15.640Z,100871.38
2022-11-05T20:03:14.691Z,100837.38
2022-11-05T20:08:14.697Z,100903.22
2022-11-05T20:13:21.186Z,100890.44
2022-11-05T20:18:23.164Z,100915.44
2022-11-05T20:23:20.346Z,100816.66
2022-11-05T20:28:20.960Z,100885.88
2022-11-05T20:33:18.628Z,100829.63
2022-11-05T20:38:17.047Z,100863.19
2022-11-05T20:43:14.420Z,100941.88
2022-11-05T20:48:12.474Z,100852.75
2022-11-05T20:53:12.966Z,100936.44
2022-11-05T20:58:13.920Z,100906.16
2022-11-05T21:03:11.618Z,100849.94
2022-11-05T21:08:09.149Z,100804.50
2022-11-05T21:13:06.537Z,100910.88
2022-11-05T21:18:05.412Z,100852.03
2022-11-05T21:23:05.202Z,100831.63
2022-11-05T21:28:03.330Z,100874.94
2022-11-05T21:33:00.643Z,100833.91
2022-11-05T21:38:00.455Z,100936.41
2022-11-05T21:42:57.684Z,100924.94
2022-11-05T21:47:55.427Z,100897.47
2022-11-05T21:53:10.683Z,100936.25
2022-11-05T21:58:32.142Z,100900.72
2022-11-05T22:03:29.732Z,100857.91
2022-11-05T22:08:27.376Z,100968.78
2022-11-05T22:13:25.318Z,100908.75
2022-11-05T22:18:22.793Z,100935.97
2022-11-05T22:23:19.736Z,100891.38
2022-11-05T22:28:16.763Z,100988.66
2022-11-05T22:33:14.554Z,100918.09
2022-11-05T22:38:12.383Z,100948.69
2022-11-05T22:43:09.719Z,100959.84
2022-11-05T22:48:08.023Z,100937.75
2022-11-05T22:53:05.983Z,100960.81
2022-11-05T22:58:02.993Z,100940.31
2022-11-05T23:03:04.377Z,100974.00
2022-11-05T23:08:19.748Z,100978.69
2022-11-05T23:13:17.674Z,100916.75
2022-11-05T23:18:32.925Z,100902.41
2022-11-05T23:23:48.227Z,100951.88
2022-11-05T23:28:46.317Z,100871.50
2022-11-05T23:33:44.131Z,100968.63
2022-11-05T23:38:41.211Z,100960.47
2022-11-05T23:43:56.535Z,100952.06
2022-11-05T23:48:54.272Z,100935.13
2022-11-05T23:53:51.662Z,100946.84
2022-11-05T23:58:48.852Z,100971.69
